Jennings, Louisiana
Current Conditions -  °F | °C
As of 1:35 PM on Tuesday 21 Oct 2014 (Local Time) from K3R7 Reporting Station
Clear Clear  
Wind Chill: 78°   Ceiling: Unl
Heat Index: 79°   Visibility: 10mi
Dew Point: 53°   Wind: 12mph
Humidity: 42%   Direction: 30°NNE
Pressure: 30.02"   Gusts: NA
Location:  30.22°N, 92.66°W
Report Text: K3R7 211835Z AUTO 03010KT 10SM CLR 26/12 A3002 RMK AO2 T02580118
Loading
Personal Weather Stations






























Interactive Weather Map
Tropical Storm Tracking
New forecast layout! Learn more

10-Day Weather Forecast

Advertisements
Track Severe Weather on mobile